createdAt,value
2023-05-15T00:00:53.099Z,16.60
2023-05-15T00:03:21.281Z,16.60
2023-05-15T00:05:49.504Z,16.60
2023-05-15T00:08:17.479Z,16.60
2023-05-15T00:10:57.369Z,16.50
2023-05-15T00:13:28.155Z,16.50
2023-05-15T00:15:57.591Z,16.50
2023-05-15T00:18:25.696Z,16.50
2023-05-15T00:20:53.764Z,16.40
2023-05-15T00:23:21.790Z,16.40
2023-05-15T00:25:49.870Z,16.30
2023-05-15T00:28:17.923Z,16.20
2023-05-15T00:30:45.965Z,16.10
2023-05-15T00:33:15.637Z,16.10
2023-05-15T00:35:44.202Z,16.10
2023-05-15T00:38:12.924Z,16.10
2023-05-15T00:40:43.058Z,16.20
2023-05-15T00:43:12.302Z,16.10
2023-05-15T00:45:42.162Z,16.10
2023-05-15T00:48:11.102Z,16.10
2023-05-15T00:50:42.400Z,16.10
2023-05-15T00:53:10.774Z,16.00
2023-05-15T00:55:39.234Z,16.10
2023-05-15T00:58:08.313Z,16.10
2023-05-15T01:00:37.436Z,16.10
2023-05-15T01:03:06.725Z,16.10
2023-05-15T01:05:35.043Z,16.10
2023-05-15T01:08:14.102Z,16.10
2023-05-15T01:10:44.013Z,16.10
2023-05-15T01:13:15.082Z,16.10
2023-05-15T01:15:43.155Z,16.00
2023-05-15T01:18:12.356Z,16.00
2023-05-15T01:20:51.188Z,15.90
2023-05-15T01:23:30.347Z,15.90
2023-05-15T01:26:29.350Z,15.90
2023-05-15T01:29:02.831Z,15.80
2023-05-15T01:31:34.230Z,15.80
2023-05-15T01:34:08.052Z,15.80
2023-05-15T01:36:40.083Z,15.70
2023-05-15T01:39:09.568Z,15.70
2023-05-15T01:41:43.763Z,15.70
2023-05-15T01:44:19.903Z,15.70
2023-05-15T01:46:52.209Z,15.70
2023-05-15T01:49:24.006Z,15.70
2023-05-15T01:51:57.760Z,15.70
2023-05-15T01:54:26.438Z,15.60
2023-05-15T01:56:56.715Z,15.60
2023-05-15T01:59:27.863Z,15.60
2023-05-15T02:01:57.963Z,15.60
2023-05-15T02:04:27.202Z,15.50
2023-05-15T02:06:55.829Z,15.50
2023-05-15T02:09:24.749Z,15.50
2023-05-15T02:11:52.924Z,15.50
2023-05-15T02:14:21.493Z,15.50
2023-05-15T02:16:51.178Z,15.50
2023-05-15T02:19:19.195Z,15.50
2023-05-15T02:21:47.221Z,15.50
2023-05-15T02:24:15.257Z,15.60
2023-05-15T02:26:51.647Z,15.50
2023-05-15T02:29:22.122Z,15.60
2023-05-15T02:32:02.833Z,15.60
2023-05-15T02:34:38.815Z,15.60
2023-05-15T02:37:11.904Z,15.60
2023-05-15T02:39:40.864Z,15.70
2023-05-15T02:42:10.484Z,15.60
2023-05-15T02:44:41.596Z,15.60
2023-05-15T02:47:11.980Z,15.60
2023-05-15T02:49:40.756Z,15.60
2023-05-15T02:52:08.858Z,15.60
2023-05-15T02:54:36.865Z,15.60
2023-05-15T02:57:05.464Z,15.50
2023-05-15T02:59:33.431Z,15.50
2023-05-15T03:02:03.411Z,15.40
2023-05-15T03:04:32.826Z,15.40
2023-05-15T03:07:01.075Z,15.50
2023-05-15T03:09:29.149Z,15.40
2023-05-15T03:11:57.142Z,15.40
2023-05-15T03:14:25.225Z,15.40
2023-05-15T03:16:53.226Z,15.40
2023-05-15T03:19:21.305Z,15.40
2023-05-15T03:21:50.717Z,15.30
2023-05-15T03:24:18.762Z,15.30
2023-05-15T03:26:46.796Z,15.30
2023-05-15T03:29:14.841Z,15.30
2023-05-15T03:31:42.916Z,15.20
2023-05-15T03:34:10.841Z,15.20
2023-05-15T03:36:38.813Z,15.20
2023-05-15T03:39:08.857Z,15.20
2023-05-15T03:41:38.819Z,15.10
2023-05-15T03:44:07.321Z,15.10
2023-05-15T03:46:35.314Z,15.10
2023-05-15T03:49:03.842Z,15.10
2023-05-15T03:51:31.834Z,15.10
2023-05-15T03:53:59.889Z,15.20
2023-05-15T03:56:29.241Z,15.10
2023-05-15T03:58:57.221Z,15.00
2023-05-15T04:01:25.164Z,15.00
2023-05-15T04:03:53.140Z,15.00
2023-05-15T04:06:21.103Z,14.90
2023-05-15T04:08:49.412Z,14.90
2023-05-15T04:11:18.297Z,15.00
2023-05-15T04:13:47.595Z,15.00
2023-05-15T04:16:16.357Z,15.00
2023-05-15T04:18:44.430Z,15.00
2023-05-15T04:21:12.353Z,14.90
2023-05-15T04:23:41.567Z,14.90
2023-05-15T04:26:10.131Z,14.90
2023-05-15T04:28:38.081Z,14.90
2023-05-15T04:31:07.435Z,14.90
2023-05-15T04:33:35.411Z,14.90
2023-05-15T04:36:03.511Z,14.90
2023-05-15T04:38:31.481Z,15.00
2023-05-15T04:40:59.445Z,14.90
2023-05-15T04:43:27.423Z,14.90
2023-05-15T04:45:55.914Z,15.00
2023-05-15T04:48:25.419Z,14.90
2023-05-15T04:50:53.395Z,14.90
2023-05-15T04:53:21.328Z,14.80
2023-05-15T04:55:51.311Z,14.80
2023-05-15T04:58:19.285Z,14.70
2023-05-15T05:00:47.253Z,14.70
2023-05-15T05:03:15.416Z,14.80
2023-05-15T05:05:44.845Z,14.70
2023-05-15T05:08:12.885Z,14.70
2023-05-15T05:10:40.982Z,14.70
2023-05-15T05:13:08.977Z,14.70
2023-05-15T05:15:37.169Z,14.70
2023-05-15T05:18:05.988Z,14.60
2023-05-15T05:20:33.992Z,14.70
2023-05-15T05:23:03.316Z,14.70
2023-05-15T05:25:31.293Z,14.60
2023-05-15T05:27:59.390Z,14.60
2023-05-15T05:30:27.408Z,14.60
2023-05-15T05:32:55.498Z,14.60
2023-05-15T05:35:23.778Z,14.60
2023-05-15T05:37:51.876Z,14.60
2023-05-15T05:40:21.290Z,14.60
2023-05-15T05:42:49.224Z,14.60
2023-05-15T05:45:17.389Z,14.70
2023-05-15T05:47:45.364Z,14.70
2023-05-15T05:50:13.345Z,14.70
2023-05-15T05:52:41.354Z,14.60
2023-05-15T05:55:09.840Z,14.60
2023-05-15T05:57:39.192Z,14.60
2023-05-15T06:00:09.773Z,14.60
2023-05-15T06:02:38.204Z,14.60
2023-05-15T06:05:07.356Z,14.60
2023-05-15T06:07:35.894Z,14.60
2023-05-15T06:10:03.987Z,14.60
2023-05-15T06:12:32.018Z,14.60
2023-05-15T06:15:01.374Z,14.60
2023-05-15T06:17:29.412Z,14.50
2023-05-15T06:19:57.453Z,14.50
2023-05-15T06:22:25.479Z,14.40
2023-05-15T06:24:53.425Z,14.40
2023-05-15T06:27:21.395Z,14.40
2023-05-15T06:29:49.354Z,14.30
2023-05-15T06:32:18.973Z,14.30
2023-05-15T06:34:47.003Z,14.40
2023-05-15T06:37:15.169Z,14.50
2023-05-15T06:39:43.217Z,14.60
2023-05-15T06:42:11.244Z,14.60
2023-05-15T06:44:39.670Z,14.70
2023-05-15T06:47:08.306Z,14.80
2023-05-15T06:49:37.654Z,14.80
2023-05-15T06:52:06.337Z,14.90
2023-05-15T06:54:34.320Z,14.90
2023-05-15T06:57:02.361Z,14.90
2023-05-15T06:59:31.206Z,15.00
2023-05-15T07:01:59.254Z,14.80
2023-05-15T07:04:27.322Z,14.80
2023-05-15T07:06:56.663Z,14.80
2023-05-15T07:09:26.299Z,14.70
2023-05-15T07:11:54.323Z,14.70
2023-05-15T07:14:22.302Z,14.70
2023-05-15T07:16:50.432Z,14.60
2023-05-15T07:19:20.979Z,14.60
2023-05-15T07:21:49.147Z,14.60
2023-05-15T07:24:18.471Z,14.50
2023-05-15T07:26:57.572Z,14.50
2023-05-15T07:29:26.681Z,14.40
2023-05-15T07:31:54.840Z,14.30
2023-05-15T07:34:23.436Z,14.20
2023-05-15T07:36:51.518Z,14.30
2023-05-15T07:39:21.030Z,14.30
2023-05-15T07:41:49.016Z,14.30
2023-05-15T07:44:17.001Z,14.30
2023-05-15T07:46:45.587Z,14.30
2023-05-15T07:49:13.838Z,14.30
2023-05-15T07:51:42.679Z,14.30
2023-05-15T07:54:10.878Z,14.30
2023-05-15T07:56:40.409Z,14.30
2023-05-15T07:59:08.527Z,14.30
2023-05-15T08:01:36.652Z,14.40
2023-05-15T08:04:08.125Z,14.50
2023-05-15T08:06:36.964Z,14.40
2023-05-15T08:09:05.301Z,14.30
2023-05-15T08:11:33.299Z,14.30
2023-05-15T08:14:02.694Z,14.40
2023-05-15T08:16:30.894Z,14.40
2023-05-15T08:19:01.646Z,14.40
2023-05-15T08:21:30.892Z,14.50
2023-05-15T08:23:59.653Z,14.40
2023-05-15T08:26:27.919Z,14.50
2023-05-15T08:28:55.907Z,14.60
2023-05-15T08:31:25.645Z,14.60
2023-05-15T08:33:53.684Z,14.50
2023-05-15T08:36:21.799Z,14.60
2023-05-15T08:38:49.889Z,14.60
2023-05-15T08:41:39.231Z,14.60
2023-05-15T08:44:10.520Z,14.60
2023-05-15T08:46:40.723Z,14.70
2023-05-15T08:49:13.585Z,14.70
2023-05-15T08:51:41.860Z,14.70
2023-05-15T08:54:10.422Z,14.70
2023-05-15T08:56:38.619Z,14.80
2023-05-15T08:59:07.261Z,14.80
2023-05-15T09:01:35.511Z,14.80
2023-05-15T09:04:05.873Z,14.80
2023-05-15T09:06:35.255Z,14.90
2023-05-15T09:09:05.297Z,14.80
2023-05-15T09:11:35.228Z,14.90
2023-05-15T09:14:03.232Z,15.00
2023-05-15T09:16:31.285Z,15.10
2023-05-15T09:19:01.253Z,15.30
2023-05-15T09:21:32.198Z,15.40
2023-05-15T09:24:18.390Z,15.50
2023-05-15T09:26:47.835Z,15.60
2023-05-15T09:29:18.890Z,15.60
2023-05-15T09:31:48.228Z,15.70
2023-05-15T09:34:16.366Z,15.70
2023-05-15T09:36:45.894Z,15.80
2023-05-15T09:39:13.942Z,15.90
2023-05-15T09:41:44.669Z,15.90
2023-05-15T09:44:26.355Z,16.00
2023-05-15T09:46:54.836Z,16.00
2023-05-15T09:49:23.018Z,16.10
2023-05-15T09:51:52.475Z,16.20
2023-05-15T09:54:20.744Z,16.30
2023-05-15T09:56:49.352Z,16.50
2023-05-15T09:59:21.552Z,16.60
2023-05-15T10:01:50.862Z,16.50
2023-05-15T10:04:19.060Z,16.50
2023-05-15T10:06:48.630Z,16.60
2023-05-15T10:09:20.065Z,16.70
2023-05-15T10:11:52.953Z,16.70
2023-05-15T10:14:22.973Z,16.70
2023-05-15T10:16:52.135Z,16.80
2023-05-15T10:19:23.699Z,16.90
2023-05-15T10:21:54.097Z,17.00
2023-05-15T10:24:26.590Z,17.10
2023-05-15T10:26:56.543Z,17.10
2023-05-15T10:29:27.052Z,17.20
2023-05-15T10:31:55.836Z,17.20
2023-05-15T10:34:24.881Z,17.30
2023-05-15T10:36:53.598Z,17.50
2023-05-15T10:39:24.184Z,17.50
2023-05-15T10:41:52.345Z,17.40
2023-05-15T10:44:21.441Z,17.40
2023-05-15T10:46:50.161Z,17.40
2023-05-15T10:49:18.444Z,17.50
2023-05-15T10:51:46.470Z,17.50
2023-05-15T10:54:15.185Z,17.50
2023-05-15T10:56:44.649Z,17.50
2023-05-15T10:59:13.148Z,17.60
2023-05-15T11:01:42.300Z,17.70
2023-05-15T11:04:12.758Z,17.80
2023-05-15T11:06:42.450Z,17.80
2023-05-15T11:09:36.225Z,17.90
2023-05-15T11:12:07.167Z,17.90
2023-05-15T11:14:38.134Z,17.90
2023-05-15T11:17:08.010Z,18.00
2023-05-15T11:19:38.740Z,17.90
2023-05-15T11:22:20.452Z,18.00
2023-05-15T11:24:53.343Z,18.10
2023-05-15T11:27:24.696Z,18.20
2023-05-15T11:30:10.161Z,18.30
2023-05-15T11:32:46.640Z,18.30
2023-05-15T11:35:19.951Z,18.30
2023-05-15T11:37:49.491Z,18.40
2023-05-15T11:40:22.288Z,18.50
2023-05-15T11:43:18.880Z,18.60
2023-05-15T11:45:49.501Z,18.50
2023-05-15T11:48:19.232Z,18.60
2023-05-15T11:50:47.766Z,18.60
2023-05-15T11:53:16.517Z,18.60
2023-05-15T11:55:45.905Z,18.60
2023-05-15T11:58:16.739Z,18.70
2023-05-15T12:00:46.122Z,18.90
2023-05-15T12:03:18.277Z,18.90
2023-05-15T12:05:57.403Z,19.10
2023-05-15T12:08:31.769Z,19.20
2023-05-15T12:11:00.462Z,19.30
2023-05-15T12:13:30.460Z,19.40
2023-05-15T12:15:59.087Z,19.40
2023-05-15T12:18:27.115Z,19.50
2023-05-15T12:20:55.769Z,19.50
2023-05-15T12:23:26.647Z,19.50
2023-05-15T12:25:58.875Z,19.60
2023-05-15T12:28:29.697Z,19.60
2023-05-15T12:30:58.797Z,19.70
2023-05-15T12:33:27.031Z,19.70
2023-05-15T12:35:59.978Z,19.80
2023-05-15T12:38:29.624Z,19.80
2023-05-15T12:40:57.954Z,19.70
2023-05-15T12:43:28.300Z,19.70
2023-05-15T12:45:58.357Z,19.90
2023-05-15T12:48:32.012Z,20.00
2023-05-15T12:51:07.162Z,20.20
2023-05-15T12:53:36.007Z,20.20
2023-05-15T12:56:04.722Z,20.20
2023-05-15T12:58:33.276Z,20.20
2023-05-15T13:01:03.768Z,20.10
2023-05-15T13:03:32.534Z,20.10
2023-05-15T13:06:02.859Z,20.20
2023-05-15T13:08:31.419Z,20.30
2023-05-15T13:11:00.772Z,20.40
2023-05-15T13:13:43.367Z,20.60
2023-05-15T13:16:21.810Z,20.80
2023-05-15T13:18:50.001Z,20.90
2023-05-15T13:21:18.362Z,21.10
2023-05-15T13:23:46.363Z,21.30
2023-05-15T13:26:14.456Z,21.20
2023-05-15T13:28:42.557Z,20.90
2023-05-15T13:31:10.814Z,20.80
2023-05-15T13:33:40.268Z,21.00
2023-05-15T13:36:08.708Z,20.80
2023-05-15T13:38:36.752Z,20.80
2023-05-15T13:41:05.369Z,20.90
2023-05-15T13:43:33.382Z,21.10
2023-05-15T13:46:01.376Z,21.40
2023-05-15T13:48:29.414Z,21.60
2023-05-15T13:50:58.881Z,21.70
2023-05-15T13:53:27.115Z,21.90
2023-05-15T13:55:55.230Z,21.90
2023-05-15T13:58:26.391Z,22.10
2023-05-15T14:00:54.397Z,22.00
2023-05-15T14:03:22.537Z,22.10
2023-05-15T14:05:51.237Z,22.40
2023-05-15T14:08:21.085Z,22.40
2023-05-15T14:10:50.259Z,22.40
2023-05-15T14:13:19.536Z,22.00
2023-05-15T14:15:47.561Z,21.80
2023-05-15T14:18:15.700Z,21.80
2023-05-15T14:20:46.429Z,21.60
2023-05-15T14:23:15.461Z,21.40
2023-05-15T14:25:44.797Z,21.40
2023-05-15T14:28:13.001Z,21.50
2023-05-15T14:30:41.619Z,21.70
2023-05-15T14:33:09.640Z,21.90
2023-05-15T14:35:37.675Z,22.10
2023-05-15T14:38:05.770Z,22.40
2023-05-15T14:40:33.985Z,22.50
2023-05-15T14:43:03.336Z,22.30
2023-05-15T14:45:31.498Z,21.90
2023-05-15T14:47:59.526Z,21.90
2023-05-15T14:50:28.385Z,21.70
2023-05-15T14:52:56.519Z,21.60
2023-05-15T14:55:24.487Z,21.40
2023-05-15T14:57:52.484Z,21.30
2023-05-15T15:00:21.988Z,21.20
2023-05-15T15:02:50.089Z,21.30
2023-05-15T15:05:18.654Z,21.50
2023-05-15T15:08:01.533Z,21.90
2023-05-15T15:10:29.718Z,22.30
2023-05-15T15:12:58.161Z,22.50
2023-05-15T15:15:27.788Z,22.70
2023-05-15T15:17:56.699Z,22.60
2023-05-15T15:20:26.149Z,22.40
2023-05-15T15:22:54.718Z,22.60
2023-05-15T15:25:23.672Z,22.50
2023-05-15T15:27:51.888Z,22.50
2023-05-15T15:30:20.354Z,22.40
2023-05-15T15:32:49.893Z,22.30
2023-05-15T15:35:18.058Z,21.90
2023-05-15T15:37:46.227Z,21.60
2023-05-15T15:40:14.366Z,21.30
2023-05-15T15:42:42.396Z,21.10
2023-05-15T15:45:10.612Z,21.10
2023-05-15T15:47:38.790Z,21.00
2023-05-15T15:50:09.300Z,20.70
2023-05-15T15:52:37.534Z,20.50
2023-05-15T15:55:06.490Z,20.30
2023-05-15T15:57:34.681Z,20.20
2023-05-15T16:00:02.955Z,20.00
2023-05-15T16:02:33.182Z,20.00
2023-05-15T16:05:01.395Z,19.80
2023-05-15T16:07:30.981Z,19.70
2023-05-15T16:10:11.877Z,19.60
2023-05-15T16:12:42.452Z,19.50
2023-05-15T16:17:42.229Z,19.50
2023-05-15T16:20:10.847Z,19.40
2023-05-15T16:22:41.705Z,19.50
2023-05-15T16:25:10.611Z,19.40
2023-05-15T16:27:38.577Z,19.30
2023-05-15T16:30:07.640Z,19.20
2023-05-15T16:32:36.168Z,19.10
2023-05-15T16:35:04.753Z,19.00
2023-05-15T16:37:32.770Z,18.90
2023-05-15T16:40:02.199Z,18.70
2023-05-15T16:42:30.229Z,18.60
2023-05-15T16:44:58.217Z,18.50
2023-05-15T16:47:26.279Z,18.40
2023-05-15T16:49:54.334Z,18.30
2023-05-15T16:52:22.317Z,18.30
2023-05-15T16:54:50.399Z,18.30
2023-05-15T16:57:20.256Z,18.30
2023-05-15T16:59:48.512Z,18.20
2023-05-15T17:02:16.665Z,18.20
2023-05-15T17:04:44.803Z,18.10
2023-05-15T17:07:12.926Z,18.00
2023-05-15T17:09:43.087Z,18.00
2023-05-15T17:12:11.715Z,18.10
2023-05-15T17:14:41.109Z,18.20
2023-05-15T17:17:09.171Z,18.20
2023-05-15T17:19:37.183Z,18.30
2023-05-15T17:22:05.483Z,18.20
2023-05-15T17:24:42.673Z,18.20
2023-05-15T17:27:18.433Z,18.20
2023-05-15T17:29:48.213Z,18.10
2023-05-15T17:32:17.389Z,18.10
2023-05-15T17:34:46.129Z,18.00
2023-05-15T17:37:14.641Z,18.00
2023-05-15T17:39:42.662Z,18.10
2023-05-15T17:42:10.697Z,18.10
2023-05-15T17:44:38.733Z,18.10
2023-05-15T17:47:08.472Z,18.00
2023-05-15T17:49:36.598Z,18.10
2023-05-15T17:52:04.805Z,18.00
2023-05-15T17:54:32.885Z,18.10
2023-05-15T17:57:01.180Z,18.10
2023-05-15T17:59:29.301Z,18.10
2023-05-15T18:01:57.360Z,18.00
2023-05-15T18:04:26.856Z,18.00
2023-05-15T18:06:55.041Z,17.90
2023-05-15T18:09:24.335Z,17.80
2023-05-15T18:11:52.834Z,17.70
2023-05-15T18:14:20.841Z,17.70
2023-05-15T18:16:48.805Z,17.60
2023-05-15T18:19:17.003Z,17.70
2023-05-15T18:21:46.469Z,17.70
2023-05-15T18:24:14.449Z,17.70
2023-05-15T18:26:42.512Z,17.70
2023-05-15T18:29:10.548Z,17.60
2023-05-15T18:31:38.601Z,17.50
2023-05-15T18:34:06.665Z,17.40
2023-05-15T18:36:35.000Z,17.40
2023-05-15T18:39:04.326Z,17.40
2023-05-15T18:41:32.324Z,17.40
2023-05-15T18:44:00.285Z,17.30
2023-05-15T18:46:28.576Z,17.30
2023-05-15T18:48:56.642Z,17.10
2023-05-15T18:51:25.049Z,17.00
2023-05-15T18:53:53.070Z,17.00
2023-05-15T18:56:22.624Z,17.00
2023-05-15T18:58:50.650Z,17.00
2023-05-15T19:01:18.751Z,16.90
2023-05-15T19:03:46.896Z,16.90
2023-05-15T19:06:19.718Z,16.90
2023-05-15T19:08:48.509Z,16.90
2023-05-15T19:11:18.345Z,16.70
2023-05-15T19:13:47.752Z,16.70
2023-05-15T19:16:15.838Z,16.60
2023-05-15T19:18:44.000Z,16.50
2023-05-15T19:21:12.406Z,16.50
2023-05-15T19:23:40.450Z,16.40
2023-05-15T19:26:10.250Z,16.40
2023-05-15T19:28:38.333Z,16.40
2023-05-15T19:31:14.015Z,16.30
2023-05-15T19:33:45.313Z,16.30
2023-05-15T19:36:13.869Z,16.20
2023-05-15T19:38:42.095Z,16.10
2023-05-15T19:41:10.198Z,16.00
2023-05-15T19:43:39.683Z,16.00
2023-05-15T19:46:09.110Z,16.00
2023-05-15T19:48:37.155Z,15.90
2023-05-15T19:51:05.310Z,15.90
2023-05-15T19:53:33.301Z,15.80
2023-05-15T19:56:01.364Z,15.60
2023-05-15T19:58:29.404Z,15.50
2023-05-15T20:00:57.449Z,15.50
2023-05-15T20:03:32.705Z,15.50
2023-05-15T20:06:01.485Z,15.40
2023-05-15T20:08:30.002Z,15.40
2023-05-15T20:10:58.449Z,15.50
2023-05-15T20:13:26.539Z,15.40
2023-05-15T20:15:56.748Z,15.30
2023-05-15T20:18:26.818Z,15.30
2023-05-15T20:20:55.250Z,15.30
2023-05-15T20:23:23.852Z,15.30
2023-05-15T20:25:52.478Z,15.30
2023-05-15T20:28:24.739Z,15.30
2023-05-15T20:30:53.278Z,15.20
2023-05-15T20:33:21.303Z,15.10
2023-05-15T20:35:51.893Z,15.00
2023-05-15T20:38:20.719Z,15.00
2023-05-15T20:40:48.967Z,15.00
2023-05-15T20:43:16.974Z,15.00
2023-05-15T20:45:44.996Z,15.00
2023-05-15T20:48:13.790Z,15.00
2023-05-15T20:50:41.764Z,15.00
2023-05-15T20:53:11.253Z,15.10
2023-05-15T20:55:39.452Z,15.10
2023-05-15T20:58:07.670Z,15.10
2023-05-15T21:00:36.270Z,15.10
2023-05-15T21:03:04.625Z,15.10
2023-05-15T21:05:32.698Z,15.10
2023-05-15T21:08:00.717Z,15.10
2023-05-15T21:10:30.316Z,15.10
2023-05-15T21:12:59.518Z,15.10
2023-05-15T21:15:27.654Z,15.10
2023-05-15T21:17:55.698Z,15.00
2023-05-15T21:20:23.851Z,14.90
2023-05-15T21:22:51.918Z,14.90
2023-05-15T21:25:20.057Z,14.90
2023-05-15T21:27:49.393Z,14.80
2023-05-15T21:30:17.531Z,14.80
2023-05-15T21:32:45.702Z,14.70
2023-05-15T21:35:13.725Z,14.60
2023-05-15T21:37:41.704Z,14.70
2023-05-15T21:40:10.970Z,14.70
2023-05-15T21:42:38.936Z,14.70
2023-05-15T21:45:09.264Z,14.70
2023-05-15T21:47:37.297Z,14.60
2023-05-15T21:50:06.240Z,14.60
2023-05-15T21:52:34.440Z,14.70
2023-05-15T21:55:02.684Z,14.80
2023-05-15T21:57:30.661Z,14.80
2023-05-15T21:59:58.647Z,14.80
2023-05-15T22:02:28.009Z,14.70
2023-05-15T22:04:56.066Z,14.70
2023-05-15T22:07:24.008Z,14.70
2023-05-15T22:09:53.114Z,14.60
2023-05-15T22:12:21.335Z,14.50
2023-05-15T22:14:58.381Z,14.50
2023-05-15T22:17:30.780Z,14.50
2023-05-15T22:20:07.051Z,14.50
2023-05-15T22:22:36.357Z,14.40
2023-05-15T22:25:04.723Z,14.30
2023-05-15T22:27:32.924Z,14.30
2023-05-15T22:30:01.069Z,14.30
2023-05-15T22:32:30.796Z,14.30
2023-05-15T22:34:58.825Z,14.30
2023-05-15T22:37:26.833Z,14.20
2023-05-15T22:39:54.871Z,14.20
2023-05-15T22:42:23.940Z,14.10
2023-05-15T22:44:52.031Z,14.10
2023-05-15T22:47:20.164Z,14.10
2023-05-15T22:49:49.552Z,14.00
2023-05-15T22:52:18.973Z,14.00
2023-05-15T22:54:46.996Z,14.10
2023-05-15T22:57:15.056Z,14.10
2023-05-15T22:59:43.233Z,14.10
2023-05-15T23:02:11.212Z,14.10
2023-05-15T23:04:39.295Z,14.10
2023-05-15T23:07:08.721Z,14.20
2023-05-15T23:09:36.715Z,14.20
2023-05-15T23:12:05.056Z,14.10
2023-05-15T23:14:34.229Z,14.10
2023-05-15T23:17:02.228Z,14.20
2023-05-15T23:19:30.205Z,14.10
2023-05-15T23:21:58.365Z,14.10
2023-05-15T23:24:27.716Z,14.10
2023-05-15T23:26:55.743Z,14.10
2023-05-15T23:29:23.771Z,14.00
2023-05-15T23:31:51.797Z,14.00
2023-05-15T23:34:19.940Z,13.90
2023-05-15T23:36:47.915Z,13.80
2023-05-15T23:39:16.359Z,13.70
2023-05-15T23:41:45.780Z,13.70
2023-05-15T23:44:13.808Z,13.60
2023-05-15T23:46:41.871Z,13.50
2023-05-15T23:49:09.866Z,13.60
2023-05-15T23:51:37.813Z,13.50
2023-05-15T23:54:05.852Z,13.50
2023-05-15T23:56:33.798Z,13.40
2023-05-15T23:59:03.227Z,13.30
